sensor_id;sensor_type;location;lat;lon;timestamp;pressure;altitude;pressure_sealevel;temperature;humidity
51986;BME280;38002;53.296;6.600;2024-03-17T00:00:15;102626.06;;;4.51;97.87
51986;BME280;38002;53.296;6.600;2024-03-17T00:05:18;102620.34;;;4.40;98.03
51986;BME280;38002;53.296;6.600;2024-03-17T00:10:18;102627.72;;;4.37;98.03
51986;BME280;38002;53.296;6.600;2024-03-17T00:15:19;102623.69;;;4.28;98.22
51986;BME280;38002;53.296;6.600;2024-03-17T00:20:20;102626.53;;;4.25;98.35
51986;BME280;38002;53.296;6.600;2024-03-17T00:25:21;102629.53;;;4.19;98.08
51986;BME280;38002;53.296;6.600;2024-03-17T00:30:22;102623.66;;;4.11;98.61
51986;BME280;38002;53.296;6.600;2024-03-17T00:35:22;102624.13;;;4.02;98.37
51986;BME280;38002;53.296;6.600;2024-03-17T00:40:23;102623.50;;;3.97;99.13
51986;BME280;38002;53.296;6.600;2024-03-17T00:45:23;102621.09;;;3.91;98.49
51986;BME280;38002;53.296;6.600;2024-03-17T00:50:24;102624.91;;;3.87;99.11
51986;BME280;38002;53.296;6.600;2024-03-17T00:55:27;102626.06;;;3.81;98.42
51986;BME280;38002;53.296;6.600;2024-03-17T01:00:28;102620.03;;;3.76;98.69
51986;BME280;38002;53.296;6.600;2024-03-17T01:05:28;102622.00;;;3.73;98.60
51986;BME280;38002;53.296;6.600;2024-03-17T01:10:28;102620.47;;;3.67;99.29
51986;BME280;38002;53.296;6.600;2024-03-17T01:15:30;102608.28;;;3.60;99.28
51986;BME280;38002;53.296;6.600;2024-03-17T01:20:31;102612.13;;;3.54;98.93
51986;BME280;38002;53.296;6.600;2024-03-17T01:25:33;102614.13;;;3.51;98.93
51986;BME280;38002;53.296;6.600;2024-03-17T01:30:37;102602.78;;;3.44;98.66
51986;BME280;38002;53.296;6.600;2024-03-17T01:35:38;102596.81;;;3.38;100.00
51986;BME280;38002;53.296;6.600;2024-03-17T01:40:38;102597.03;;;3.33;98.96
51986;BME280;38002;53.296;6.600;2024-03-17T01:45:39;102573.94;;;3.29;99.88
51986;BME280;38002;53.296;6.600;2024-03-17T01:50:39;102582.31;;;3.23;98.96
51986;BME280;38002;53.296;6.600;2024-03-17T01:55:42;102587.03;;;3.18;98.83
51986;BME280;38002;53.296;6.600;2024-03-17T02:00:43;102583.69;;;3.13;99.23
51986;BME280;38002;53.296;6.600;2024-03-17T02:05:44;102587.47;;;3.09;99.50
51986;BME280;38002;53.296;6.600;2024-03-17T02:10:45;102573.38;;;3.04;99.80
51986;BME280;38002;53.296;6.600;2024-03-17T02:15:45;102574.44;;;3.00;99.49
51986;BME280;38002;53.296;6.600;2024-03-17T02:20:46;102567.41;;;2.97;100.00
51986;BME280;38002;53.296;6.600;2024-03-17T02:25:55;102569.28;;;2.95;99.35
51986;BME280;38002;53.296;6.600;2024-03-17T02:30:55;102567.63;;;2.93;99.71
51986;BME280;38002;53.296;6.600;2024-03-17T02:35:56;102566.16;;;2.86;99.94
51986;BME280;38002;53.296;6.600;2024-03-17T02:40:56;102561.00;;;2.81;100.00
51986;BME280;38002;53.296;6.600;2024-03-17T02:45:57;102570.06;;;2.79;100.00
51986;BME280;38002;53.296;6.600;2024-03-17T02:50:57;102571.09;;;2.76;99.94
51986;BME280;38002;53.296;6.600;2024-03-17T02:55:58;102571.31;;;2.71;100.00
51986;BME280;38002;53.296;6.600;2024-03-17T03:00:58;102565.94;;;2.71;100.00
51986;BME280;38002;53.296;6.600;2024-03-17T03:05:59;102571.31;;;2.71;100.00
51986;BME280;38002;53.296;6.600;2024-03-17T03:11:06;102579.88;;;2.80;100.00
51986;BME280;38002;53.296;6.600;2024-03-17T03:16:11;102576.84;;;2.87;100.00
51986;BME280;38002;53.296;6.600;2024-03-17T03:21:12;102566.53;;;2.97;100.00
51986;BME280;38002;53.296;6.600;2024-03-17T03:26:13;102569.59;;;3.08;100.00
51986;BME280;38002;53.296;6.600;2024-03-17T03:31:13;102561.91;;;3.19;100.00
51986;BME280;38002;53.296;6.600;2024-03-17T03:36:15;102563.34;;;3.26;100.00
51986;BME280;38002;53.296;6.600;2024-03-17T03:41:16;102561.31;;;3.31;100.00
51986;BME280;38002;53.296;6.600;2024-03-17T03:46:17;102565.38;;;3.40;100.00
51986;BME280;38002;53.296;6.600;2024-03-17T03:51:17;102561.50;;;3.45;100.00
51986;BME280;38002;53.296;6.600;2024-03-17T03:56:18;102559.44;;;3.50;100.00
51986;BME280;38002;53.296;6.600;2024-03-17T04:01:20;102548.56;;;3.53;100.00
51986;BME280;38002;53.296;6.600;2024-03-17T04:06:22;102548.41;;;3.56;100.00
51986;BME280;38002;53.296;6.600;2024-03-17T04:11:23;102542.81;;;3.61;100.00
51986;BME280;38002;53.296;6.600;2024-03-17T04:16:23;102532.75;;;3.64;100.00
51986;BME280;38002;53.296;6.600;2024-03-17T04:21:24;102538.78;;;3.70;100.00
51986;BME280;38002;53.296;6.600;2024-03-17T04:26:24;102544.06;;;3.71;100.00
51986;BME280;38002;53.296;6.600;2024-03-17T04:31:25;102548.44;;;3.74;100.00
51986;BME280;38002;53.296;6.600;2024-03-17T04:36:25;102555.41;;;3.78;100.00
51986;BME280;38002;53.296;6.600;2024-03-17T04:41:26;102554.47;;;3.79;100.00
51986;BME280;38002;53.296;6.600;2024-03-17T04:46:27;102550.72;;;3.81;100.00
51986;BME280;38002;53.296;6.600;2024-03-17T04:51:28;102539.97;;;3.81;100.00
51986;BME280;38002;53.296;6.600;2024-03-17T04:56:28;102537.28;;;3.81;100.00
51986;BME280;38002;53.296;6.600;2024-03-17T05:01:29;102529.22;;;3.81;100.00
51986;BME280;38002;53.296;6.600;2024-03-17T05:06:31;102522.94;;;3.81;100.00
51986;BME280;38002;53.296;6.600;2024-03-17T05:11:31;102522.81;;;3.84;100.00
51986;BME280;38002;53.296;6.600;2024-03-17T05:16:33;102521.06;;;3.83;100.00
51986;BME280;38002;53.296;6.600;2024-03-17T05:21:33;102516.56;;;3.83;100.00
51986;BME280;38002;53.296;6.600;2024-03-17T05:26:34;102514.75;;;3.84;100.00
51986;BME280;38002;53.296;6.600;2024-03-17T05:31:34;102529.78;;;3.88;100.00
51986;BME280;38002;53.296;6.600;2024-03-17T05:36:35;102526.13;;;3.89;100.00
51986;BME280;38002;53.296;6.600;2024-03-17T05:41:35;102514.41;;;3.90;100.00
51986;BME280;38002;53.296;6.600;2024-03-17T05:46:36;102515.34;;;3.89;100.00
51986;BME280;38002;53.296;6.600;2024-03-17T05:51:37;102517.91;;;3.92;100.00
51986;BME280;38002;53.296;6.600;2024-03-17T05:56:37;102522.00;;;3.99;100.00
51986;BME280;38002;53.296;6.600;2024-03-17T06:01:39;102527.22;;;4.02;100.00
51986;BME280;38002;53.296;6.600;2024-03-17T06:06:39;102522.47;;;4.07;100.00
51986;BME280;38002;53.296;6.600;2024-03-17T06:11:40;102527.69;;;4.10;100.00
51986;BME280;38002;53.296;6.600;2024-03-17T06:16:40;102530.31;;;4.11;100.00
51986;BME280;38002;53.296;6.600;2024-03-17T06:21:41;102530.25;;;4.13;100.00
51986;BME280;38002;53.296;6.600;2024-03-17T06:26:41;102537.03;;;4.20;100.00
51986;BME280;38002;53.296;6.600;2024-03-17T06:31:42;102525.97;;;4.26;100.00
51986;BME280;38002;53.296;6.600;2024-03-17T06:36:42;102524.75;;;4.32;100.00
51986;BME280;38002;53.296;6.600;2024-03-17T06:41:43;102528.00;;;4.38;100.00
51986;BME280;38002;53.296;6.600;2024-03-17T06:46:45;102524.97;;;4.44;100.00
51986;BME280;38002;53.296;6.600;2024-03-17T06:51:47;102524.47;;;4.53;100.00
51986;BME280;38002;53.296;6.600;2024-03-17T06:56:48;102522.25;;;4.62;100.00
51986;BME280;38002;53.296;6.600;2024-03-17T07:01:49;102528.69;;;4.75;100.00
51986;BME280;38002;53.296;6.600;2024-03-17T07:06:50;102535.16;;;4.88;100.00
51986;BME280;38002;53.296;6.600;2024-03-17T07:11:50;102525.34;;;5.02;100.00
51986;BME280;38002;53.296;6.600;2024-03-17T07:16:51;102524.59;;;5.16;100.00
51986;BME280;38002;53.296;6.600;2024-03-17T07:21:51;102544.16;;;5.35;100.00
51986;BME280;38002;53.296;6.600;2024-03-17T07:26:52;102529.53;;;5.55;100.00
51986;BME280;38002;53.296;6.600;2024-03-17T07:31:52;102513.09;;;5.74;100.00
51986;BME280;38002;53.296;6.600;2024-03-17T07:36:52;102514.06;;;5.88;100.00
51986;BME280;38002;53.296;6.600;2024-03-17T07:41:53;102517.84;;;6.00;100.00
51986;BME280;38002;53.296;6.600;2024-03-17T07:46:56;102521.84;;;6.09;100.00
51986;BME280;38002;53.296;6.600;2024-03-17T07:51:57;102519.47;;;6.18;100.00
51986;BME280;38002;53.296;6.600;2024-03-17T07:56:58;102511.75;;;6.26;100.00
51986;BME280;38002;53.296;6.600;2024-03-17T08:01:58;102512.84;;;6.38;100.00
51986;BME280;38002;53.296;6.600;2024-03-17T08:06:59;102496.34;;;6.43;100.00
51986;BME280;38002;53.296;6.600;2024-03-17T08:11:59;102509.97;;;6.55;100.00
51986;BME280;38002;53.296;6.600;2024-03-17T08:16:59;102511.41;;;6.61;100.00
51986;BME280;38002;53.296;6.600;2024-03-17T08:22:00;102512.38;;;6.74;100.00
51986;BME280;38002;53.296;6.600;2024-03-17T08:27:00;102515.34;;;6.83;100.00
51986;BME280;38002;53.296;6.600;2024-03-17T08:32:01;102507.53;;;6.93;100.00
51986;BME280;38002;53.296;6.600;2024-03-17T08:37:01;102518.22;;;7.09;100.00
51986;BME280;38002;53.296;6.600;2024-03-17T08:42:02;102525.09;;;7.14;100.00
51986;BME280;38002;53.296;6.600;2024-03-17T08:47:03;102526.63;;;7.18;100.00
51986;BME280;38002;53.296;6.600;2024-03-17T08:52:04;102521.34;;;7.29;100.00
51986;BME280;38002;53.296;6.600;2024-03-17T08:57:04;102529.09;;;7.36;100.00
51986;BME280;38002;53.296;6.600;2024-03-17T09:02:05;102533.03;;;7.44;100.00
51986;BME280;38002;53.296;6.600;2024-03-17T09:07:11;102522.47;;;7.54;100.00
51986;BME280;38002;53.296;6.600;2024-03-17T09:12:13;102517.09;;;7.66;100.00
51986;BME280;38002;53.296;6.600;2024-03-17T09:17:14;102511.72;;;7.79;100.00
51986;BME280;38002;53.296;6.600;2024-03-17T09:22:14;102501.56;;;7.95;100.00
51986;BME280;38002;53.296;6.600;2024-03-17T09:27:15;102500.31;;;8.13;100.00
51986;BME280;38002;53.296;6.600;2024-03-17T09:32:19;102492.09;;;8.28;100.00
51986;BME280;38002;53.296;6.600;2024-03-17T09:37:19;102498.44;;;8.41;100.00
51986;BME280;38002;53.296;6.600;2024-03-17T09:42:20;102490.06;;;8.56;100.00
51986;BME280;38002;53.296;6.600;2024-03-17T09:47:21;102494.25;;;8.86;99.77
51986;BME280;38002;53.296;6.600;2024-03-17T09:52:24;102492.34;;;9.11;99.38
51986;BME280;38002;53.296;6.600;2024-03-17T09:57:25;102495.66;;;9.28;98.60
51986;BME280;38002;53.296;6.600;2024-03-17T10:02:26;102494.00;;;9.38;99.04
51986;BME280;38002;53.296;6.600;2024-03-17T10:07:46;102483.56;;;9.44;97.99
51986;BME280;38002;53.296;6.600;2024-03-17T10:12:52;102483.22;;;9.49;97.09
51986;BME280;38002;53.296;6.600;2024-03-17T10:17:52;102477.03;;;9.47;97.13
51986;BME280;38002;53.296;6.600;2024-03-17T10:23:04;102474.75;;;9.41;97.94
51986;BME280;38002;53.296;6.600;2024-03-17T10:28:15;102477.81;;;9.36;97.22
51986;BME280;38002;53.296;6.600;2024-03-17T10:33:23;102471.75;;;9.33;93.87
51986;BME280;38002;53.296;6.600;2024-03-17T10:38:27;102468.84;;;9.36;97.15
51986;BME280;38002;53.296;6.600;2024-03-17T10:43:28;102461.19;;;9.41;96.77
51986;BME280;38002;53.296;6.600;2024-03-17T10:48:31;102459.00;;;9.46;97.39
51986;BME280;38002;53.296;6.600;2024-03-17T10:53:34;102454.09;;;9.51;96.81
51986;BME280;38002;53.296;6.600;2024-03-17T10:58:39;102434.50;;;9.58;97.51
51986;BME280;38002;53.296;6.600;2024-03-17T11:03:49;102440.09;;;9.68;97.30
51986;BME280;38002;53.296;6.600;2024-03-17T11:08:51;102434.19;;;9.74;96.10
51986;BME280;38002;53.296;6.600;2024-03-17T11:14:18;102430.38;;;9.77;95.36
51986;BME280;38002;53.296;6.600;2024-03-17T11:19:22;102429.41;;;9.89;95.71
51986;BME280;38002;53.296;6.600;2024-03-17T11:24:27;102427.63;;;10.00;96.05
51986;BME280;38002;53.296;6.600;2024-03-17T11:29:29;102412.19;;;10.12;95.33
51986;BME280;38002;53.296;6.600;2024-03-17T11:34:37;102410.63;;;10.21;94.06
51986;BME280;38002;53.296;6.600;2024-03-17T11:50:04;102394.31;;;10.65;91.23
51986;BME280;38002;53.296;6.600;2024-03-17T11:55:05;102381.94;;;10.72;92.61
51986;BME280;38002;53.296;6.600;2024-03-17T12:00:19;102381.03;;;10.83;89.21
51986;BME280;38002;53.296;6.600;2024-03-17T12:05:20;102373.34;;;10.88;91.06
51986;BME280;38002;53.296;6.600;2024-03-17T12:10:21;102367.31;;;10.96;92.01
51986;BME280;38002;53.296;6.600;2024-03-17T12:15:22;102368.03;;;10.98;90.49
51986;BME280;38002;53.296;6.600;2024-03-17T12:20:22;102367.53;;;11.04;90.56
51986;BME280;38002;53.296;6.600;2024-03-17T12:25:23;102369.47;;;11.13;89.69
51986;BME280;38002;53.296;6.600;2024-03-17T12:30:27;102355.31;;;11.19;87.66
51986;BME280;38002;53.296;6.600;2024-03-17T12:35:27;102344.41;;;11.30;88.23
51986;BME280;38002;53.296;6.600;2024-03-17T12:40:28;102345.81;;;11.45;87.46
51986;BME280;38002;53.296;6.600;2024-03-17T12:45:29;102335.25;;;11.52;86.50
51986;BME280;38002;53.296;6.600;2024-03-17T12:50:30;102328.41;;;11.57;85.35
51986;BME280;38002;53.296;6.600;2024-03-17T12:55:31;102314.34;;;11.73;84.56
51986;BME280;38002;53.296;6.600;2024-03-17T13:01:17;102322.63;;;11.92;83.89
51986;BME280;38002;53.296;6.600;2024-03-17T13:06:23;102307.84;;;12.15;85.79
51986;BME280;38002;53.296;6.600;2024-03-17T13:11:24;102297.38;;;12.30;86.53
51986;BME280;38002;53.296;6.600;2024-03-17T13:16:25;102289.81;;;12.43;85.43
51986;BME280;38002;53.296;6.600;2024-03-17T13:21:25;102288.41;;;12.49;84.26
51986;BME280;38002;53.296;6.600;2024-03-17T13:26:26;102284.16;;;12.25;83.26
51986;BME280;38002;53.296;6.600;2024-03-17T13:31:26;102269.91;;;12.12;85.23
51986;BME280;38002;53.296;6.600;2024-03-17T13:36:27;102276.88;;;11.96;84.09
51986;BME280;38002;53.296;6.600;2024-03-17T13:41:28;102268.94;;;11.83;83.61
51986;BME280;38002;53.296;6.600;2024-03-17T13:46:28;102265.09;;;11.65;82.90
51986;BME280;38002;53.296;6.600;2024-03-17T13:51:29;102250.38;;;11.56;84.03
51986;BME280;38002;53.296;6.600;2024-03-17T13:56:29;102252.06;;;11.48;83.69
51986;BME280;38002;53.296;6.600;2024-03-17T14:01:30;102246.88;;;11.45;83.74
51986;BME280;38002;53.296;6.600;2024-03-17T14:06:33;102250.59;;;11.44;84.33
51986;BME280;38002;53.296;6.600;2024-03-17T14:11:33;102227.09;;;11.43;84.11
51986;BME280;38002;53.296;6.600;2024-03-17T14:16:34;102229.81;;;11.43;84.82
51986;BME280;38002;53.296;6.600;2024-03-17T14:21:34;102226.34;;;11.41;84.53
51986;BME280;38002;53.296;6.600;2024-03-17T14:26:35;102222.31;;;11.35;83.07
51986;BME280;38002;53.296;6.600;2024-03-17T14:31:35;102220.84;;;11.31;84.09
51986;BME280;38002;53.296;6.600;2024-03-17T14:36:37;102215.41;;;11.31;83.98
51986;BME280;38002;53.296;6.600;2024-03-17T14:41:38;102204.66;;;11.29;82.74
51986;BME280;38002;53.296;6.600;2024-03-17T14:46:38;102198.88;;;11.23;83.13
51986;BME280;38002;53.296;6.600;2024-03-17T14:51:40;102193.09;;;11.16;82.57
51986;BME280;38002;53.296;6.600;2024-03-17T14:56:40;102193.50;;;11.12;83.07
51986;BME280;38002;53.296;6.600;2024-03-17T15:01:41;102186.72;;;11.06;83.40
51986;BME280;38002;53.296;6.600;2024-03-17T15:06:42;102179.69;;;11.04;83.54
51986;BME280;38002;53.296;6.600;2024-03-17T15:11:45;102175.66;;;10.98;83.13
51986;BME280;38002;53.296;6.600;2024-03-17T15:16:49;102174.31;;;10.92;82.85
51986;BME280;38002;53.296;6.600;2024-03-17T15:21:49;102169.00;;;10.91;83.50
51986;BME280;38002;53.296;6.600;2024-03-17T15:26:50;102161.97;;;10.88;83.26
51986;BME280;38002;53.296;6.600;2024-03-17T15:31:50;102154.78;;;10.87;83.04
51986;BME280;38002;53.296;6.600;2024-03-17T15:36:51;102154.06;;;10.85;82.91
51986;BME280;38002;53.296;6.600;2024-03-17T15:41:51;102155.34;;;10.81;82.97
51986;BME280;38002;53.296;6.600;2024-03-17T15:46:51;102144.44;;;10.81;83.33
51986;BME280;38002;53.296;6.600;2024-03-17T15:51:52;102142.00;;;10.78;82.60
51986;BME280;38002;53.296;6.600;2024-03-17T15:56:52;102142.00;;;10.78;83.29
51986;BME280;38002;53.296;6.600;2024-03-17T16:01:53;102124.06;;;10.76;83.22
51986;BME280;38002;53.296;6.600;2024-03-17T16:06:53;102126.19;;;10.72;83.69
51986;BME280;38002;53.296;6.600;2024-03-17T16:11:55;102129.03;;;10.71;83.18
51986;BME280;38002;53.296;6.600;2024-03-17T16:16:55;102131.16;;;10.67;82.89
51986;BME280;38002;53.296;6.600;2024-03-17T16:21:57;102125.25;;;10.62;81.14
51986;BME280;38002;53.296;6.600;2024-03-17T16:26:58;102127.97;;;10.62;82.98
51986;BME280;38002;53.296;6.600;2024-03-17T16:31:59;102116.50;;;10.59;83.15
51986;BME280;38002;53.296;6.600;2024-03-17T16:36:59;102118.91;;;10.52;83.83
51986;BME280;38002;53.296;6.600;2024-03-17T16:42:00;102114.72;;;10.48;84.21
51986;BME280;38002;53.296;6.600;2024-03-17T16:52:23;102115.72;;;10.36;85.19
51986;BME280;38002;53.296;6.600;2024-03-17T16:57:24;102102.66;;;10.30;85.00
51986;BME280;38002;53.296;6.600;2024-03-17T17:02:25;102111.34;;;10.24;85.90
51986;BME280;38002;53.296;6.600;2024-03-17T17:07:25;102116.44;;;10.17;85.74
51986;BME280;38002;53.296;6.600;2024-03-17T17:12:27;102111.34;;;10.13;86.13
51986;BME280;38002;53.296;6.600;2024-03-17T17:17:27;102113.59;;;10.08;86.26
51986;BME280;38002;53.296;6.600;2024-03-17T17:22:28;102103.38;;;10.00;86.33
51986;BME280;38002;53.296;6.600;2024-03-17T17:27:28;102104.72;;;9.94;86.63
51986;BME280;38002;53.296;6.600;2024-03-17T17:32:30;102108.97;;;9.87;86.26
51986;BME280;38002;53.296;6.600;2024-03-17T17:37:30;102100.59;;;9.79;86.56
51986;BME280;38002;53.296;6.600;2024-03-17T17:42:31;102108.09;;;9.76;86.63
51986;BME280;38002;53.296;6.600;2024-03-17T17:47:31;102099.50;;;9.71;86.64
51986;BME280;38002;53.296;6.600;2024-03-17T17:52:32;102105.16;;;9.68;87.26
51986;BME280;38002;53.296;6.600;2024-03-17T17:57:32;102116.38;;;9.63;86.97
51986;BME280;38002;53.296;6.600;2024-03-17T18:02:33;102108.50;;;9.60;87.00
51986;BME280;38002;53.296;6.600;2024-03-17T18:07:34;102110.47;;;9.58;87.18
51986;BME280;38002;53.296;6.600;2024-03-17T18:12:34;102109.84;;;9.54;87.08
51986;BME280;38002;53.296;6.600;2024-03-17T18:17:34;102115.44;;;9.53;86.82
51986;BME280;38002;53.296;6.600;2024-03-17T18:22:35;102111.34;;;9.47;87.46
51986;BME280;38002;53.296;6.600;2024-03-17T18:27:35;102119.75;;;9.44;87.08
51986;BME280;38002;53.296;6.600;2024-03-17T18:32:36;102114.44;;;9.43;87.04
51986;BME280;38002;53.296;6.600;2024-03-17T18:37:36;102117.41;;;9.40;87.92
51986;BME280;38002;53.296;6.600;2024-03-17T18:42:37;102112.97;;;9.39;87.78
51986;BME280;38002;53.296;6.600;2024-03-17T18:47:38;102106.06;;;9.35;87.66
51986;BME280;38002;53.296;6.600;2024-03-17T18:52:38;102108.16;;;9.31;87.62
51986;BME280;38002;53.296;6.600;2024-03-17T18:57:39;102102.09;;;9.28;88.47
51986;BME280;38002;53.296;6.600;2024-03-17T19:02:40;102096.19;;;9.23;88.74
51986;BME280;38002;53.296;6.600;2024-03-17T19:07:41;102095.31;;;9.22;88.76
51986;BME280;38002;53.296;6.600;2024-03-17T19:12:41;102083.97;;;9.17;87.80
51986;BME280;38002;53.296;6.600;2024-03-17T19:17:41;102087.81;;;9.15;89.15
51986;BME280;38002;53.296;6.600;2024-03-17T19:22:42;102094.31;;;9.12;88.95
51986;BME280;38002;53.296;6.600;2024-03-17T19:27:43;102085.56;;;9.08;89.44
51986;BME280;38002;53.296;6.600;2024-03-17T19:32:44;102083.84;;;9.07;89.30
51986;BME280;38002;53.296;6.600;2024-03-17T19:37:45;102086.81;;;9.04;89.90
51986;BME280;38002;53.296;6.600;2024-03-17T19:42:47;102079.91;;;9.00;89.58
51986;BME280;38002;53.296;6.600;2024-03-17T19:47:47;102098.13;;;8.98;90.26
51986;BME280;38002;53.296;6.600;2024-03-17T19:52:48;102086.56;;;8.96;90.61
51986;BME280;38002;53.296;6.600;2024-03-17T19:57:49;102080.38;;;8.94;90.80
51986;BME280;38002;53.296;6.600;2024-03-17T20:02:49;102077.16;;;8.89;90.71
51986;BME280;38002;53.296;6.600;2024-03-17T20:07:55;102078.28;;;8.87;91.76
51986;BME280;38002;53.296;6.600;2024-03-17T20:12:55;102065.06;;;8.82;91.13
51986;BME280;38002;53.296;6.600;2024-03-17T20:17:56;102067.91;;;8.81;91.89
51986;BME280;38002;53.296;6.600;2024-03-17T20:22:56;102069.75;;;8.80;91.88
51986;BME280;38002;53.296;6.600;2024-03-17T20:27:57;102060.88;;;8.78;91.95
51986;BME280;38002;53.296;6.600;2024-03-17T20:32:57;102060.28;;;8.75;92.76
51986;BME280;38002;53.296;6.600;2024-03-17T20:38:00;102044.34;;;8.70;93.30
51986;BME280;38002;53.296;6.600;2024-03-17T20:43:01;102038.53;;;8.63;94.01
51986;BME280;38002;53.296;6.600;2024-03-17T20:48:01;102036.19;;;8.59;93.57
51986;BME280;38002;53.296;6.600;2024-03-17T20:53:02;102030.28;;;8.54;94.61
51986;BME280;38002;53.296;6.600;2024-03-17T20:58:03;102028.03;;;8.48;95.21
51986;BME280;38002;53.296;6.600;2024-03-17T21:03:03;102022.13;;;8.43;94.35
51986;BME280;38002;53.296;6.600;2024-03-17T21:08:04;102022.47;;;8.38;94.98
51986;BME280;38002;53.296;6.600;2024-03-17T21:13:05;102018.03;;;8.37;94.72
51986;BME280;38002;53.296;6.600;2024-03-17T21:18:05;102020.13;;;8.34;94.98
51986;BME280;38002;53.296;6.600;2024-03-17T21:23:06;102003.13;;;8.32;94.63
51986;BME280;38002;53.296;6.600;2024-03-17T21:28:06;102004.97;;;8.31;95.00
51986;BME280;38002;53.296;6.600;2024-03-17T21:33:07;102004.09;;;8.31;94.94
51986;BME280;38002;53.296;6.600;2024-03-17T21:38:07;101985.56;;;8.25;95.85
51986;BME280;38002;53.296;6.600;2024-03-17T21:43:08;101983.72;;;8.25;95.49
51986;BME280;38002;53.296;6.600;2024-03-17T21:48:08;101982.13;;;8.23;96.30
51986;BME280;38002;53.296;6.600;2024-03-17T21:53:09;101974.13;;;8.21;97.08
51986;BME280;38002;53.296;6.600;2024-03-17T21:58:09;101959.94;;;8.17;96.35
51986;BME280;38002;53.296;6.600;2024-03-17T22:03:10;101955.50;;;8.16;96.28
51986;BME280;38002;53.296;6.600;2024-03-17T22:08:10;101949.22;;;8.16;96.08
51986;BME280;38002;53.296;6.600;2024-03-17T22:13:11;101957.25;;;8.17;96.55
51986;BME280;38002;53.296;6.600;2024-03-17T22:18:11;101949.22;;;8.16;97.38
51986;BME280;38002;53.296;6.600;2024-03-17T22:23:12;101942.94;;;8.15;96.88
51986;BME280;38002;53.296;6.600;2024-03-17T22:28:13;101932.97;;;8.16;96.87
51986;BME280;38002;53.296;6.600;2024-03-17T22:33:13;101931.38;;;8.13;98.04
51986;BME280;38002;53.296;6.600;2024-03-17T22:38:14;101922.50;;;8.11;97.73
51986;BME280;38002;53.296;6.600;2024-03-17T22:43:14;101918.09;;;8.10;97.43
51986;BME280;38002;53.296;6.600;2024-03-17T22:48:15;101909.81;;;8.12;97.48
51986;BME280;38002;53.296;6.600;2024-03-17T22:53:15;101907.97;;;8.12;97.63
51986;BME280;38002;53.296;6.600;2024-03-17T22:58:17;101905.25;;;8.12;97.44
51986;BME280;38002;53.296;6.600;2024-03-17T23:03:19;101915.13;;;8.13;97.17
51986;BME280;38002;53.296;6.600;2024-03-17T23:08:23;101910.44;;;8.15;97.06
51986;BME280;38002;53.296;6.600;2024-03-17T23:13:25;101921.16;;;8.17;96.83
51986;BME280;38002;53.296;6.600;2024-03-17T23:18:27;101900.59;;;8.14;97.04
51986;BME280;38002;53.296;6.600;2024-03-17T23:23:27;101895.19;;;8.14;97.85
51986;BME280;38002;53.296;6.600;2024-03-17T23:28:28;101902.31;;;8.15;97.54
51986;BME280;38002;53.296;6.600;2024-03-17T23:33:28;101894.31;;;8.14;97.37
51986;BME280;38002;53.296;6.600;2024-03-17T23:38:29;101894.31;;;8.14;97.43
51986;BME280;38002;53.296;6.600;2024-03-17T23:43:29;101897.13;;;8.12;97.07
51986;BME280;38002;53.296;6.600;2024-03-17T23:48:30;101891.00;;;8.10;97.86
51986;BME280;38002;53.296;6.600;2024-03-17T23:53:30;101894.78;;;8.08;98.08
51986;BME280;38002;53.296;6.600;2024-03-17T23:58:31;101889.63;;;8.05;98.09
